Time;durP1;ratioP1;P1;durP2;ratioP2;P2;SDS_P1;SDS_P2;PMS_P1;PMS_P2;Temp;Humidity;BMP_temperature;BMP_pressure;BME280_temperature;BME280_humidity;BME280_pressure;Samples;Min_cycle;Max_cycle;Signal;HPM_P1;HPM_P2
2022/05/17 00:00:30;;;;;;;;;;;17.60;86.70;;;;;;4981349;28;20474;-84
2022/05/17 00:02:57;;;;;;;;;;;17.70;86.80;;;;;;4998944;28;19909;-85
2022/05/17 00:05:23;;;;;;;;;;;17.70;86.80;;;;;;4997736;28;19916;-84
2022/05/17 00:07:48;;;;;;;;;;;17.60;86.80;;;;;;4980165;28;19906;-84
2022/05/17 00:10:13;;;;;;;;;;;17.70;86.80;;;;;;4980064;28;19909;-84
2022/05/17 00:12:39;;;;;;;;;;;17.70;86.80;;;;;;4980466;28;19906;-84
2022/05/17 00:15:05;;;;;;;;;;;17.70;86.60;;;;;;4997590;28;20337;-83
2022/05/17 00:17:30;;;;;;;;;;;17.70;86.50;;;;;;4980312;28;19906;-84
2022/05/17 00:19:56;;;;;;;;;;;17.70;86.30;;;;;;4980057;28;19913;-84
2022/05/17 00:22:21;;;;;;;;;;;17.80;86.20;;;;;;4979716;28;19906;-84
2022/05/17 00:24:47;;;;;;;;;;;17.80;86.10;;;;;;4997376;28;19920;-84
2022/05/17 00:27:12;;;;;;;;;;;17.80;86.00;;;;;;4978960;28;19906;-85
2022/05/17 00:29:38;;;;;;;;;;;17.80;86.00;;;;;;4996952;28;20398;-84
2022/05/17 00:32:03;;;;;;;;;;;17.80;86.10;;;;;;4979266;28;19909;-84
2022/05/17 00:34:29;;;;;;;;;;;17.70;86.20;;;;;;5011972;28;20345;-84
2022/05/17 00:36:55;;;;;;;;;;;17.70;86.30;;;;;;4996439;28;19910;-84
2022/05/17 00:39:20;;;;;;;;;;;17.70;86.40;;;;;;4979149;28;19933;-84
2022/05/17 00:41:45;;;;;;;;;;;17.70;86.50;;;;;;4997213;28;20299;-84
2022/05/17 00:46:55;;;;;;;;;;;17.70;86.60;;;;;;5000639;28;19975;-85
2022/05/17 00:49:30;;;;;;;;;;;17.70;86.60;;;;;;5011596;28;19976;-85
2022/05/17 00:51:58;;;;;;;;;;;17.70;86.70;;;;;;5001104;28;19913;-85
2022/05/17 00:54:24;;;;;;;;;;;17.60;86.70;;;;;;4995190;28;20453;-85
2022/05/17 00:56:55;;;;;;;;;;;17.60;86.70;;;;;;4999103;28;19985;-85
2022/05/17 00:59:20;;;;;;;;;;;17.60;86.70;;;;;;5014202;28;19910;-85
2022/05/17 01:01:46;;;;;;;;;;;17.60;86.80;;;;;;4998957;28;19912;-85
2022/05/17 01:04:15;;;;;;;;;;;17.60;86.80;;;;;;4998649;28;19913;-84
2022/05/17 01:06:53;;;;;;;;;;;17.60;86.80;;;;;;5006558;28;20371;-84
2022/05/17 01:09:19;;;;;;;;;;;17.60;86.90;;;;;;5000491;28;19912;-85
2022/05/17 01:11:44;;;;;;;;;;;17.60;86.90;;;;;;5007161;28;19910;-85
2022/05/17 01:16:55;;;;;;;;;;;17.70;86.70;;;;;;5017920;28;20421;-85
2022/05/17 01:19:20;;;;;;;;;;;17.70;86.50;;;;;;5018323;28;19909;-84
2022/05/17 01:21:46;;;;;;;;;;;17.70;86.40;;;;;;4995657;28;19917;-85
2022/05/17 01:24:11;;;;;;;;;;;17.70;86.20;;;;;;4983307;28;19909;-84
2022/05/17 01:26:41;;;;;;;;;;;17.80;86.20;;;;;;4982988;28;19905;-84
2022/05/17 01:29:07;;;;;;;;;;;17.80;86.20;;;;;;5015975;28;19914;-85
2022/05/17 01:31:35;;;;;;;;;;;17.80;86.20;;;;;;5016129;28;20321;-84
2022/05/17 01:34:00;;;;;;;;;;;17.80;86.30;;;;;;5000722;28;20000;-85
2022/05/17 01:36:26;;;;;;;;;;;17.70;86.30;;;;;;5006335;28;19963;-85
2022/05/17 01:38:51;;;;;;;;;;;17.70;86.40;;;;;;5002275;28;19905;-84
2022/05/17 01:41:18;;;;;;;;;;;17.70;86.50;;;;;;5002141;28;19906;-84
2022/05/17 01:43:43;;;;;;;;;;;17.70;86.50;;;;;;5001629;28;19976;-84
2022/05/17 01:46:10;;;;;;;;;;;17.60;86.60;;;;;;5019076;28;19948;-84
2022/05/17 01:48:36;;;;;;;;;;;17.70;86.70;;;;;;4989229;28;19905;-84
2022/05/17 01:54:04;;;;;;;;;;;17.60;86.70;;;;;;4987164;28;19913;-84
2022/05/17 01:56:29;;;;;;;;;;;17.60;86.70;;;;;;4999758;28;19905;-85
2022/05/17 01:58:55;;;;;;;;;;;17.60;86.80;;;;;;5009985;28;19916;-85
2022/05/17 02:01:21;;;;;;;;;;;17.60;86.80;;;;;;5000784;28;20551;-85
2022/05/17 02:03:46;;;;;;;;;;;17.60;86.90;;;;;;5000100;28;19906;-85
2022/05/17 02:06:12;;;;;;;;;;;17.60;86.90;;;;;;4980697;28;19906;-84
2022/05/17 02:08:37;;;;;;;;;;;17.60;86.90;;;;;;4997811;28;19939;-84
2022/05/17 02:11:03;;;;;;;;;;;17.60;87.00;;;;;;5003833;28;19915;-84
2022/05/17 02:13:29;;;;;;;;;;;17.70;86.90;;;;;;5000765;28;19905;-84
2022/05/17 02:15:55;;;;;;;;;;;17.60;86.80;;;;;;4993151;28;20429;-84
2022/05/17 02:18:20;;;;;;;;;;;17.70;86.70;;;;;;5007913;28;19964;-84
2022/05/17 02:20:46;;;;;;;;;;;17.70;86.50;;;;;;5000817;28;19922;-84
2022/05/17 02:23:11;;;;;;;;;;;17.70;86.40;;;;;;5017767;28;19906;-84
2022/05/17 02:25:37;;;;;;;;;;;17.70;86.20;;;;;;5000129;28;19939;-84
2022/05/17 02:28:03;;;;;;;;;;;17.80;86.30;;;;;;5000788;28;19909;-84
2022/05/17 02:30:29;;;;;;;;;;;17.80;86.20;;;;;;5018015;28;19967;-84
2022/05/17 02:32:54;;;;;;;;;;;17.70;86.20;;;;;;4989649;28;20259;-84
2022/05/17 02:35:20;;;;;;;;;;;17.70;86.30;;;;;;5002121;28;19914;-84
2022/05/17 02:37:45;;;;;;;;;;;17.80;86.50;;;;;;4999148;28;19912;-84
2022/05/17 02:40:11;;;;;;;;;;;17.70;86.50;;;;;;5018240;28;19909;-84
2022/05/17 02:42:37;;;;;;;;;;;17.70;86.60;;;;;;4986291;28;19909;-84
2022/05/17 02:45:03;;;;;;;;;;;17.60;86.60;;;;;;5011315;28;19920;-84
2022/05/17 02:47:29;;;;;;;;;;;17.60;86.70;;;;;;4999182;28;20458;-84
2022/05/17 02:49:54;;;;;;;;;;;17.60;86.80;;;;;;5003922;28;19940;-84
2022/05/17 02:52:20;;;;;;;;;;;17.60;86.80;;;;;;5005234;28;20145;-84
2022/05/17 02:54:45;;;;;;;;;;;17.60;86.80;;;;;;4986831;28;19948;-84
2022/05/17 02:57:11;;;;;;;;;;;17.60;86.90;;;;;;5002702;28;19956;-84
2022/05/17 02:59:36;;;;;;;;;;;17.60;86.90;;;;;;5008613;28;19906;-84
2022/05/17 03:02:02;;;;;;;;;;;17.60;86.90;;;;;;5001833;28;20256;-84
2022/05/17 03:04:28;;;;;;;;;;;17.60;87.00;;;;;;4983083;28;20286;-84
2022/05/17 03:06:53;;;;;;;;;;;17.60;87.00;;;;;;5000302;28;19959;-84
2022/05/17 03:09:19;;;;;;;;;;;17.60;87.00;;;;;;5016258;28;19956;-85
2022/05/17 03:11:45;;;;;;;;;;;17.60;87.00;;;;;;5001662;28;19909;-85
2022/05/17 03:14:11;;;;;;;;;;;17.60;87.00;;;;;;5019859;28;19968;-84
2022/05/17 03:16:36;;;;;;;;;;;17.60;86.90;;;;;;5013625;28;19972;-84
2022/05/17 03:19:02;;;;;;;;;;;17.60;86.80;;;;;;5003016;28;19980;-84
2022/05/17 03:21:28;;;;;;;;;;;17.70;86.70;;;;;;5018705;28;20000;-84
2022/05/17 03:23:53;;;;;;;;;;;17.70;86.50;;;;;;4994107;28;19909;-83
2022/05/17 03:26:19;;;;;;;;;;;17.70;86.40;;;;;;5000642;28;19909;-84
2022/05/17 03:28:45;;;;;;;;;;;17.70;86.30;;;;;;5000936;28;19917;-84
2022/05/17 03:31:11;;;;;;;;;;;17.70;86.20;;;;;;5008159;28;19909;-84
2022/05/17 03:33:37;;;;;;;;;;;17.80;86.30;;;;;;4998618;28;19973;-84
2022/05/17 03:36:03;;;;;;;;;;;17.70;86.40;;;;;;4980431;28;20330;-84
2022/05/17 03:38:28;;;;;;;;;;;17.70;86.40;;;;;;4998307;28;19912;-84
2022/05/17 03:40:54;;;;;;;;;;;17.70;86.50;;;;;;5016796;28;19995;-84
2022/05/17 03:43:20;;;;;;;;;;;17.60;86.60;;;;;;5001349;28;19921;-83
2022/05/17 03:45:45;;;;;;;;;;;17.60;86.70;;;;;;4998709;28;20530;-84
2022/05/17 03:48:11;;;;;;;;;;;17.60;86.70;;;;;;5013190;28;19914;-84
2022/05/17 03:50:37;;;;;;;;;;;17.70;86.90;;;;;;4979963;28;19917;-84
2022/05/17 03:53:02;;;;;;;;;;;17.60;86.80;;;;;;4997896;28;20474;-84
2022/05/17 03:55:28;;;;;;;;;;;17.60;86.90;;;;;;4998803;28;19956;-84
2022/05/17 03:57:53;;;;;;;;;;;17.60;86.90;;;;;;5017031;28;19917;-85
2022/05/17 04:00:19;;;;;;;;;;;17.60;86.90;;;;;;4988098;28;19913;-84
2022/05/17 04:02:44;;;;;;;;;;;17.60;87.00;;;;;;5012960;28;19952;-84
2022/05/17 04:05:11;;;;;;;;;;;17.60;87.00;;;;;;5002226;28;19967;-84
2022/05/17 04:07:36;;;;;;;;;;;17.60;87.00;;;;;;5000687;28;19905;-85
2022/05/17 04:10:03;;;;;;;;;;;17.60;87.10;;;;;;5017395;28;19963;-84
2022/05/17 04:12:29;;;;;;;;;;;17.60;87.10;;;;;;4994826;28;19914;-84
2022/05/17 04:14:54;;;;;;;;;;;17.60;87.10;;;;;;4999374;28;20333;-84
2022/05/17 04:17:20;;;;;;;;;;;17.60;87.00;;;;;;4999556;28;20137;-84
2022/05/17 04:19:45;;;;;;;;;;;17.60;86.90;;;;;;4981898;28;19906;-84
2022/05/17 04:22:11;;;;;;;;;;;17.60;86.80;;;;;;4999400;28;19949;-85
2022/05/17 04:24:41;;;;;;;;;;;17.70;86.70;;;;;;4981601;28;19957;-85
2022/05/17 04:27:07;;;;;;;;;;;17.70;86.60;;;;;;4981386;28;20018;-82
2022/05/17 04:29:32;;;;;;;;;;;17.70;86.40;;;;;;4980549;28;19918;-83
2022/05/17 04:31:58;;;;;;;;;;;17.70;86.30;;;;;;4971681;28;20113;-80
2022/05/17 04:34:24;;;;;;;;;;;17.70;86.20;;;;;;4975494;28;20032;-80
2022/05/17 04:36:49;;;;;;;;;;;17.70;86.20;;;;;;4972936;28;19918;-80
2022/05/17 04:39:15;;;;;;;;;;;17.70;86.30;;;;;;4974806;28;19909;-81
2022/05/17 04:41:44;;;;;;;;;;;17.70;86.30;;;;;;4975432;28;19968;-79
2022/05/17 04:44:09;;;;;;;;;;;17.70;86.40;;;;;;4975397;28;19937;-81
2022/05/17 04:46:35;;;;;;;;;;;17.70;86.60;;;;;;4974361;28;20002;-82
2022/05/17 04:49:01;;;;;;;;;;;17.70;86.70;;;;;;4975839;28;20008;-81
2022/05/17 04:51:27;;;;;;;;;;;17.60;86.70;;;;;;4975993;28;19909;-79
2022/05/17 04:53:52;;;;;;;;;;;17.70;86.80;;;;;;4992180;28;20363;-82
2022/05/17 04:56:19;;;;;;;;;;;17.60;86.80;;;;;;4979139;28;19916;-80
2022/05/17 04:58:44;;;;;;;;;;;17.60;86.80;;;;;;4997082;28;20313;-78
2022/05/17 05:01:10;;;;;;;;;;;17.60;86.80;;;;;;4986857;28;19909;-79
2022/05/17 05:03:36;;;;;;;;;;;17.60;86.80;;;;;;4986907;28;20012;-81
2022/05/17 05:06:02;;;;;;;;;;;17.60;86.90;;;;;;5010578;28;19972;-80
2022/05/17 05:08:27;;;;;;;;;;;17.60;86.90;;;;;;4997793;28;20007;-83
2022/05/17 05:10:53;;;;;;;;;;;17.60;86.90;;;;;;5015595;28;19940;-80
2022/05/17 05:13:20;;;;;;;;;;;17.60;86.90;;;;;;4998887;28;20007;-80
2022/05/17 05:15:46;;;;;;;;;;;17.60;86.90;;;;;;5000752;22;19948;-80
2022/05/17 05:18:12;;;;;;;;;;;17.60;87.00;;;;;;5034704;28;20366;-79
2022/05/17 05:20:39;;;;;;;;;;;17.60;87.30;;;;;;5015672;28;19909;-80
2022/05/17 05:23:04;;;;;;;;;;;17.60;86.90;;;;;;5017336;28;19909;-80
2022/05/17 05:25:30;;;;;;;;;;;17.60;86.80;;;;;;5015156;28;19917;-81
2022/05/17 05:27:55;;;;;;;;;;;17.60;86.70;;;;;;5036143;28;19909;-81
2022/05/17 05:30:21;;;;;;;;;;;17.70;86.50;;;;;;5018179;28;19916;-81
2022/05/17 05:32:47;;;;;;;;;;;17.70;86.40;;;;;;5029396;28;19931;-82
2022/05/17 05:35:16;;;;;;;;;;;17.80;86.30;;;;;;5019049;28;19928;-81
2022/05/17 05:37:42;;;;;;;;;;;17.80;86.20;;;;;;5018472;28;19909;-82
2022/05/17 05:40:08;;;;;;;;;;;17.80;86.20;;;;;;5036474;28;19911;-81
2022/05/17 05:42:34;;;;;;;;;;;17.70;86.30;;;;;;5026673;28;19909;-80
2022/05/17 05:44:59;;;;;;;;;;;17.90;86.40;;;;;;5034661;28;19912;-81
2022/05/17 05:47:25;;;;;;;;;;;17.70;86.40;;;;;;5018187;28;19948;-82
2022/05/17 05:49:50;;;;;;;;;;;17.70;86.40;;;;;;5035995;28;19920;-82
2022/05/17 05:52:16;;;;;;;;;;;17.70;86.30;;;;;;5018249;28;19909;-83
2022/05/17 05:54:42;;;;;;;;;;;17.70;86.40;;;;;;5022238;28;19909;-81
2022/05/17 05:57:08;;;;;;;;;;;17.70;86.40;;;;;;5027491;28;19934;-82
2022/05/17 05:59:33;;;;;;;;;;;17.70;86.50;;;;;;5028493;28;19909;-83
2022/05/17 06:01:59;;;;;;;;;;;17.70;86.50;;;;;;5002978;28;19913;-83
2022/05/17 06:04:27;;;;;;;;;;;17.70;86.50;;;;;;5009020;28;19917;-83
2022/05/17 06:06:53;;;;;;;;;;;17.70;86.60;;;;;;5016262;28;19905;-81
2022/05/17 06:09:19;;;;;;;;;;;17.70;86.70;;;;;;5036173;28;19916;-81
2022/05/17 06:11:44;;;;;;;;;;;17.70;86.70;;;;;;5017213;28;20523;-81
2022/05/17 06:14:10;;;;;;;;;;;17.70;86.70;;;;;;5016240;28;20155;-80
2022/05/17 06:16:35;;;;;;;;;;;17.70;86.60;;;;;;5033224;28;19917;-82
2022/05/17 06:19:01;;;;;;;;;;;17.70;86.60;;;;;;5015620;28;19913;-84
2022/05/17 06:21:26;;;;;;;;;;;17.70;86.50;;;;;;5019580;28;19905;-82
2022/05/17 06:23:51;;;;;;;;;;;17.80;86.50;;;;;;5021169;28;20320;-82
2022/05/17 06:26:17;;;;;;;;;;;17.80;86.30;;;;;;5038582;28;19972;-82
2022/05/17 06:28:42;;;;;;;;;;;17.80;86.10;;;;;;5021143;28;19905;-82
2022/05/17 06:31:08;;;;;;;;;;;17.90;86.50;;;;;;5021369;28;19912;-82
2022/05/17 06:33:33;;;;;;;;;;;17.90;85.70;;;;;;5020695;28;19944;-82
2022/05/17 06:35:59;;;;;;;;;;;17.90;85.50;;;;;;5020296;28;19905;-82
2022/05/17 06:38:24;;;;;;;;;;;18.00;85.50;;;;;;5020708;28;19912;-82
2022/05/17 06:40:50;;;;;;;;;;;18.00;85.50;;;;;;5038313;28;19909;-82
2022/05/17 06:43:15;;;;;;;;;;;18.00;85.40;;;;;;5020241;28;19912;-82
2022/05/17 06:45:40;;;;;;;;;;;18.00;85.40;;;;;;5020031;28;19956;-81
2022/05/17 06:48:06;;;;;;;;;;;18.00;85.40;;;;;;5019926;28;19912;-81
2022/05/17 06:50:32;;;;;;;;;;;18.00;85.50;;;;;;5019934;28;19905;-80
2022/05/17 06:52:58;;;;;;;;;;;17.90;85.50;;;;;;5019668;28;19951;-81
2022/05/17 06:55:24;;;;;;;;;;;18.00;86.00;;;;;;5019465;28;19988;-81
2022/05/17 06:57:50;;;;;;;;;;;18.00;85.60;;;;;;5037744;28;19952;-81
2022/05/17 07:00:17;;;;;;;;;;;18.00;85.60;;;;;;5020856;28;19905;-82
2022/05/17 07:02:42;;;;;;;;;;;18.00;85.60;;;;;;5019086;28;19905;-81
2022/05/17 07:05:09;;;;;;;;;;;18.00;85.60;;;;;;5018914;28;19909;-82
2022/05/17 07:07:35;;;;;;;;;;;18.00;85.50;;;;;;5019432;28;19905;-81
2022/05/17 07:15:29;;;;;;;;;;;18.00;85.40;;;;;;5038553;28;19992;-81
2022/05/17 07:17:56;;;;;;;;;;;18.00;85.40;;;;;;5020499;28;19963;-82
2022/05/17 07:20:22;;;;;;;;;;;18.10;85.40;;;;;;5020283;28;20375;-81
2022/05/17 07:22:47;;;;;;;;;;;18.10;85.20;;;;;;5020478;28;19952;-81
2022/05/17 07:25:12;;;;;;;;;;;18.10;85.20;;;;;;5019824;28;20554;-81
2022/05/17 07:27:38;;;;;;;;;;;18.10;85.00;;;;;;5037816;28;20363;-80
2022/05/17 07:30:04;;;;;;;;;;;18.20;84.80;;;;;;5020712;28;19911;-81
2022/05/17 07:32:30;;;;;;;;;;;18.20;84.60;;;;;;5037897;28;19939;-81
2022/05/17 07:34:55;;;;;;;;;;;18.30;84.40;;;;;;5037290;28;19905;-80
2022/05/17 07:37:20;;;;;;;;;;;18.30;84.20;;;;;;5019769;28;19931;-81
2022/05/17 07:39:46;;;;;;;;;;;18.30;84.20;;;;;;5038128;28;19905;-82
2022/05/17 07:42:12;;;;;;;;;;;18.30;84.10;;;;;;5020022;28;19909;-80
2022/05/17 07:44:37;;;;;;;;;;;18.30;84.10;;;;;;5019208;28;19999;-81
2022/05/17 07:47:03;;;;;;;;;;;18.30;84.30;;;;;;5036913;28;19905;-81
2022/05/17 07:49:29;;;;;;;;;;;18.30;84.20;;;;;;5036881;28;20282;-80
2022/05/17 07:51:54;;;;;;;;;;;18.30;84.40;;;;;;5018988;28;19905;-80
2022/05/17 07:54:20;;;;;;;;;;;18.30;84.50;;;;;;5036597;28;20485;-80
2022/05/17 07:56:45;;;;;;;;;;;18.30;84.50;;;;;;5018654;28;19905;-81
2022/05/17 07:59:11;;;;;;;;;;;18.30;84.60;;;;;;5037131;28;19905;-81
2022/05/17 08:01:36;;;;;;;;;;;18.30;84.60;;;;;;5036700;28;19955;-81
2022/05/17 08:04:02;;;;;;;;;;;18.30;84.60;;;;;;5036404;28;19958;-81
2022/05/17 08:06:27;;;;;;;;;;;18.30;84.60;;;;;;5017900;28;20377;-81
2022/05/17 08:08:53;;;;;;;;;;;18.30;84.60;;;;;;5018284;28;19905;-81
2022/05/17 08:11:18;;;;;;;;;;;18.30;84.50;;;;;;5018165;28;19908;-81
2022/05/17 08:13:44;;;;;;;;;;;18.30;84.50;;;;;;5018555;28;19906;-80
2022/05/17 08:16:09;;;;;;;;;;;18.30;84.40;;;;;;5017543;28;19967;-80
2022/05/17 08:18:35;;;;;;;;;;;18.40;84.40;;;;;;5018090;28;19905;-81
2022/05/17 08:21:00;;;;;;;;;;;18.40;84.40;;;;;;5035853;28;19905;-81
2022/05/17 08:23:26;;;;;;;;;;;18.30;84.30;;;;;;5017917;28;20518;-81
2022/05/17 08:28:35;;;;;;;;;;;18.40;84.10;;;;;;5035400;28;19962;-81
2022/05/17 08:31:01;;;;;;;;;;;18.50;84.00;;;;;;5017614;28;20007;-81
2022/05/17 08:33:26;;;;;;;;;;;18.50;83.80;;;;;;5035800;28;19905;-80
2022/05/17 08:36:03;;;;;;;;;;;18.50;83.60;;;;;;5017175;28;20366;-80
2022/05/17 08:38:31;;;;;;;;;;;18.60;83.50;;;;;;5017682;28;20371;-81
2022/05/17 08:40:56;;;;;;;;;;;18.60;83.40;;;;;;5017195;28;19905;-81
2022/05/17 08:43:29;;;;;;;;;;;18.60;83.30;;;;;;5034764;28;20393;-81
2022/05/17 08:45:58;;;;;;;;;;;18.50;83.30;;;;;;5016641;28;19912;-81
2022/05/17 08:48:25;;;;;;;;;;;18.50;83.40;;;;;;5016637;28;20388;-81
2022/05/17 08:50:51;;;;;;;;;;;18.50;83.60;;;;;;5034886;28;19919;-81
2022/05/17 08:53:18;;;;;;;;;;;18.50;83.60;;;;;;5034002;28;20003;-78
2022/05/17 08:55:44;;;;;;;;;;;18.50;83.70;;;;;;5016008;28;20263;-81
2022/05/17 08:58:18;;;;;;;;;;;18.50;83.80;;;;;;5015810;28;19906;-80
2022/05/17 09:00:47;;;;;;;;;;;18.40;83.80;;;;;;5016415;28;20325;-80
2022/05/17 09:03:31;;;;;;;;;;;18.40;83.90;;;;;;5036065;28;20050;-82
2022/05/17 09:06:15;;;;;;;;;;;18.40;84.10;;;;;;5022013;28;19909;-83
2022/05/17 09:08:49;;;;;;;;;;;18.40;84.20;;;;;;5021585;28;20362;-82
2022/05/17 09:11:23;;;;;;;;;;;18.40;84.20;;;;;;5039423;28;19960;-82
2022/05/17 09:14:00;;;;;;;;;;;18.30;84.20;;;;;;5038219;28;19905;-82
2022/05/17 09:16:26;;;;;;;;;;;18.30;84.20;;;;;;5019026;28;20453;-83
2022/05/17 09:18:52;;;;;;;;;;;18.40;84.00;;;;;;5020357;28;19912;-83
2022/05/17 09:21:25;;;;;;;;;;;18.40;83.90;;;;;;5019500;28;19909;-83
2022/05/17 09:23:50;;;;;;;;;;;18.40;83.70;;;;;;5020162;28;20004;-83
2022/05/17 09:26:17;;;;;;;;;;;18.50;83.50;;;;;;5037334;28;19955;-83
2022/05/17 09:28:50;;;;;;;;;;;18.50;83.40;;;;;;5037813;28;20258;-83
2022/05/17 09:31:24;;;;;;;;;;;18.60;83.20;;;;;;5019583;28;19911;-83
2022/05/17 09:33:50;;;;;;;;;;;18.60;82.80;;;;;;5019449;28;19909;-83
2022/05/17 09:36:21;;;;;;;;;;;18.70;82.60;;;;;;5018931;28;19905;-82
2022/05/17 09:38:47;;;;;;;;;;;18.70;82.50;;;;;;5036461;28;20426;-83
2022/05/17 09:41:15;;;;;;;;;;;18.80;82.40;;;;;;5020304;28;20354;-83
2022/05/17 09:43:45;;;;;;;;;;;18.70;82.30;;;;;;5040471;28;19913;-83
2022/05/17 09:46:12;;;;;;;;;;;18.70;82.50;;;;;;5039344;28;19912;-84
2022/05/17 09:54:09;;;;;;;;;;;18.60;83.20;;;;;;5040023;28;20369;-83
2022/05/17 09:56:34;;;;;;;;;;;18.50;83.40;;;;;;5021235;28;19905;-83
2022/05/17 09:59:00;;;;;;;;;;;18.50;83.50;;;;;;5021113;28;19974;-83
2022/05/17 10:01:28;;;;;;;;;;;18.50;83.60;;;;;;5021394;28;19905;-83
2022/05/17 10:04:03;;;;;;;;;;;18.50;83.60;;;;;;5039245;28;19912;-83
2022/05/17 10:06:31;;;;;;;;;;;18.50;83.70;;;;;;5038605;28;19909;-84
2022/05/17 10:09:01;;;;;;;;;;;18.50;83.80;;;;;;5016524;28;19909;-83
2022/05/17 10:11:28;;;;;;;;;;;18.50;83.70;;;;;;5021000;28;19959;-83
2022/05/17 10:14:00;;;;;;;;;;;18.50;83.80;;;;;;5021000;28;19912;-84
2022/05/17 10:16:34;;;;;;;;;;;18.50;83.90;;;;;;5017592;28;19913;-83
2022/05/17 10:19:02;;;;;;;;;;;18.50;83.90;;;;;;5018454;28;19909;-82
2022/05/17 10:21:37;;;;;;;;;;;18.50;84.00;;;;;;5037712;28;19905;-81
2022/05/17 10:24:06;;;;;;;;;;;18.50;84.00;;;;;;5018425;28;19916;-81
2022/05/17 10:26:38;;;;;;;;;;;18.50;84.00;;;;;;5021715;28;19905;-82
2022/05/17 10:29:06;;;;;;;;;;;18.50;84.00;;;;;;5040630;28;19912;-81
2022/05/17 10:31:46;;;;;;;;;;;18.50;83.80;;;;;;5022556;28;20358;-82
2022/05/17 10:34:24;;;;;;;;;;;18.50;83.70;;;;;;5039265;28;19905;-81
2022/05/17 10:36:51;;;;;;;;;;;18.60;84.50;;;;;;5021637;28;19909;-81
2022/05/17 10:39:17;;;;;;;;;;;18.50;84.50;;;;;;5021927;28;19955;-81
2022/05/17 10:41:43;;;;;;;;;;;18.60;85.30;;;;;;5021730;28;19905;-81
2022/05/17 10:44:13;;;;;;;;;;;18.60;84.90;;;;;;5038839;28;19905;-81
2022/05/17 10:46:39;;;;;;;;;;;18.60;84.80;;;;;;5021254;28;19909;-81
2022/05/17 10:49:11;;;;;;;;;;;18.50;84.90;;;;;;5020677;28;19916;-81
2022/05/17 10:51:42;;;;;;;;;;;18.50;85.40;;;;;;5020512;28;19905;-81
2022/05/17 10:54:16;;;;;;;;;;;18.50;85.00;;;;;;5038618;28;19905;-81
2022/05/17 10:56:47;;;;;;;;;;;18.60;85.00;;;;;;5020194;28;19905;-81
2022/05/17 10:59:21;;;;;;;;;;;18.60;85.10;;;;;;5020705;28;19904;-81
2022/05/17 11:01:47;;;;;;;;;;;18.60;85.40;;;;;;5037625;28;19912;-81
2022/05/17 11:04:24;;;;;;;;;;;18.60;85.80;;;;;;5037998;28;19905;-81
2022/05/17 11:06:55;;;;;;;;;;;18.70;86.20;;;;;;5019519;28;20119;-81
2022/05/17 11:09:39;;;;;;;;;;;18.80;86.00;;;;;;5019994;28;19952;-81
2022/05/17 11:12:08;;;;;;;;;;;18.90;87.70;;;;;;5019211;28;20003;-81
2022/05/17 11:14:43;;;;;;;;;;;19.00;87.80;;;;;;5037579;28;19905;-81
2022/05/17 11:17:19;;;;;;;;;;;19.10;88.90;;;;;;5019046;28;19975;-81
2022/05/17 11:19:48;;;;;;;;;;;19.30;89.40;;;;;;5019751;28;19940;-84
2022/05/17 11:22:18;;;;;;;;;;;19.40;89.40;;;;;;5037243;28;19912;-81
2022/05/17 11:24:46;;;;;;;;;;;19.50;90.00;;;;;;5015004;28;19909;-82
2022/05/17 11:27:30;;;;;;;;;;;19.60;90.00;;;;;;5002890;28;19972;-81
2022/05/17 11:30:14;;;;;;;;;;;19.70;90.30;;;;;;5012702;28;20445;-80
2022/05/17 11:32:42;;;;;;;;;;;19.80;90.10;;;;;;5014149;28;19909;-81
2022/05/17 11:35:26;;;;;;;;;;;19.90;90.40;;;;;;5013592;28;20253;-81
2022/05/17 11:37:52;;;;;;;;;;;20.00;90.50;;;;;;5014477;28;19909;-81
2022/05/17 11:40:37;;;;;;;;;;;20.00;90.70;;;;;;5014269;28;19909;-80
2022/05/17 11:45:53;;;;;;;;;;;20.00;90.90;;;;;;5031021;28;19919;-78
2022/05/17 11:48:38;;;;;;;;;;;20.00;91.30;;;;;;5028817;28;19963;-80
2022/05/17 11:51:04;;;;;;;;;;;20.10;91.40;;;;;;5029180;28;19915;-80
2022/05/17 11:53:32;;;;;;;;;;;20.00;91.50;;;;;;5029152;28;20496;-79
2022/05/17 11:56:10;;;;;;;;;;;20.10;91.40;;;;;;5030625;28;19939;-80
2022/05/17 11:58:35;;;;;;;;;;;20.00;91.70;;;;;;5014186;28;19913;-80
2022/05/17 12:01:01;;;;;;;;;;;20.00;91.80;;;;;;5014353;28;19916;-80
2022/05/17 12:03:47;;;;;;;;;;;20.00;91.80;;;;;;5032811;28;19912;-80
2022/05/17 12:06:27;;;;;;;;;;;20.10;91.90;;;;;;5032370;28;19912;-78
2022/05/17 12:08:52;;;;;;;;;;;20.10;91.80;;;;;;5014754;28;19924;-79
2022/05/17 12:11:37;;;;;;;;;;;20.10;91.90;;;;;;5015185;28;20000;-79
2022/05/17 12:14:08;;;;;;;;;;;20.10;91.80;;;;;;5015222;28;20437;-81
2022/05/17 12:16:35;;;;;;;;;;;20.20;91.70;;;;;;5014080;28;20208;-80
2022/05/17 12:19:01;;;;;;;;;;;20.20;91.70;;;;;;5020070;28;19913;-81
2022/05/17 12:21:30;;;;;;;;;;;20.20;91.60;;;;;;5018750;28;19909;-79
2022/05/17 12:23:59;;;;;;;;;;;20.20;91.30;;;;;;5017375;28;19920;-78
2022/05/17 12:26:33;;;;;;;;;;;20.30;91.30;;;;;;5035239;28;19916;-80
2022/05/17 12:30:52;;;;;;;;;;;20.30;91.00;;;;;;5016601;28;19920;-78
2022/05/17 12:31:44;;;;;;;;;;;20.40;90.80;;;;;;5033706;28;20628;-80
2022/05/17 12:34:20;;;;;;;;;;;20.40;90.60;;;;;;5016706;28;19920;-77
2022/05/17 12:36:45;;;;;;;;;;;20.40;90.30;;;;;;5015228;28;20008;-79
2022/05/17 12:44:44;;;;;;;;;;;20.20;90.30;;;;;;5034781;28;19967;-79
2022/05/17 12:47:12;;;;;;;;;;;20.00;90.50;;;;;;5017260;28;19905;-80
2022/05/17 12:49:41;;;;;;;;;;;19.90;90.80;;;;;;5017077;28;19916;-80
2022/05/17 12:52:12;;;;;;;;;;;19.80;91.00;;;;;;5016148;28;19940;-80
2022/05/17 12:54:37;;;;;;;;;;;19.70;91.20;;;;;;5032675;28;19948;-78
2022/05/17 12:57:25;;;;;;;;;;;19.60;91.20;;;;;;5014703;28;20393;-80
2022/05/17 12:59:50;;;;;;;;;;;19.60;91.30;;;;;;5015649;28;19913;-80
2022/05/17 13:02:20;;;;;;;;;;;19.50;91.30;;;;;;5014302;28;19996;-79
2022/05/17 13:04:45;;;;;;;;;;;19.50;91.30;;;;;;5015290;28;19917;-81
2022/05/17 13:07:16;;;;;;;;;;;19.60;91.20;;;;;;5014795;28;20020;-79
2022/05/17 13:09:55;;;;;;;;;;;19.60;90.90;;;;;;5013979;28;19909;-79
2022/05/17 13:12:22;;;;;;;;;;;19.60;90.60;;;;;;5042188;28;20382;-78
2022/05/17 13:14:50;;;;;;;;;;;19.60;90.50;;;;;;5024960;28;19971;-78
2022/05/17 13:17:20;;;;;;;;;;;19.50;90.60;;;;;;5035776;28;20226;-79
2022/05/17 13:19:46;;;;;;;;;;;19.50;90.50;;;;;;5027520;28;19909;-78
2022/05/17 13:22:12;;;;;;;;;;;19.50;90.50;;;;;;5021378;28;19919;-80
2022/05/17 13:24:42;;;;;;;;;;;19.50;90.50;;;;;;5020620;28;20011;-79
2022/05/17 13:27:10;;;;;;;;;;;19.50;90.40;;;;;;5035953;28;19953;-79
2022/05/17 13:29:36;;;;;;;;;;;19.50;90.40;;;;;;5036644;28;19920;-78
2022/05/17 13:32:09;;;;;;;;;;;19.40;90.70;;;;;;5024118;28;19956;-78
2022/05/17 13:34:38;;;;;;;;;;;19.30;90.50;;;;;;5025494;28;19909;-79
2022/05/17 13:37:05;;;;;;;;;;;19.30;90.60;;;;;;5026573;28;19944;-80
2022/05/17 13:39:31;;;;;;;;;;;19.30;90.60;;;;;;5038426;28;19913;-78
2022/05/17 13:41:57;;;;;;;;;;;19.30;90.70;;;;;;5037469;28;19992;-79
2022/05/17 13:44:45;;;;;;;;;;;19.20;90.70;;;;;;5019309;28;19960;-78
2022/05/17 13:47:18;;;;;;;;;;;19.20;90.70;;;;;;5018074;28;19981;-77
2022/05/17 13:49:46;;;;;;;;;;;19.20;90.70;;;;;;5026003;28;19913;-78
2022/05/17 13:52:11;;;;;;;;;;;19.20;90.70;;;;;;5018843;28;19909;-79
2022/05/17 13:54:44;;;;;;;;;;;19.20;90.70;;;;;;5028930;28;19920;-78
2022/05/17 13:57:12;;;;;;;;;;;19.10;90.70;;;;;;5024188;28;19920;-78
2022/05/17 13:59:38;;;;;;;;;;;19.10;90.70;;;;;;5039634;28;19909;-80
2022/05/17 14:02:13;;;;;;;;;;;19.10;90.70;;;;;;5023765;28;20039;-80
2022/05/17 14:04:38;;;;;;;;;;;19.10;90.80;;;;;;5028902;28;19916;-79
2022/05/17 14:07:19;;;;;;;;;;;19.00;90.70;;;;;;5017970;28;19972;-80
2022/05/17 14:13:06;;;;;;;;;;;19.10;90.60;;;;;;5042172;28;19920;-78
2022/05/17 14:15:32;;;;;;;;;;;19.10;90.50;;;;;;5032394;28;19942;-78
2022/05/17 14:17:58;;;;;;;;;;;19.10;90.40;;;;;;5020779;28;19919;-78
2022/05/17 14:20:23;;;;;;;;;;;19.10;90.40;;;;;;5018082;28;20589;-79
2022/05/17 14:22:49;;;;;;;;;;;19.10;90.30;;;;;;5018874;28;19915;-78
2022/05/17 14:25:14;;;;;;;;;;;19.00;90.30;;;;;;5035944;28;20405;-80
2022/05/17 14:27:39;;;;;;;;;;;19.00;90.30;;;;;;5035616;28;19970;-80
2022/05/17 14:30:05;;;;;;;;;;;19.00;90.20;;;;;;5022338;28;19909;-79
2022/05/17 14:32:31;;;;;;;;;;;19.00;90.20;;;;;;5033267;28;20201;-80
2022/05/17 14:34:56;;;;;;;;;;;18.90;90.20;;;;;;5025404;28;19964;-76
2022/05/17 14:37:22;;;;;;;;;;;18.90;90.30;;;;;;5024110;28;19913;-79
2022/05/17 14:39:47;;;;;;;;;;;18.90;90.30;;;;;;5025100;28;19917;-79
2022/05/17 14:42:13;;;;;;;;;;;18.90;90.40;;;;;;5019980;28;20415;-77
2022/05/17 14:44:39;;;;;;;;;;;18.90;90.50;;;;;;5034010;28;19917;-79
2022/05/17 14:47:19;;;;;;;;;;;18.90;90.50;;;;;;5025103;28;20377;-80
2022/05/17 14:49:53;;;;;;;;;;;18.90;90.60;;;;;;5027464;28;19925;-81
2022/05/17 14:52:18;;;;;;;;;;;18.80;90.60;;;;;;5037192;28;19905;-81